sensor_id;sensor_type;location;lat;lon;timestamp;P1;durP1;ratioP1;P2;durP2;ratioP2
21569;SDS011;57598;50.888;4.746;2023-05-07T00:00:49;66.75;;;60.75;;
21569;SDS011;57598;50.888;4.746;2023-05-07T00:03:16;67.05;;;61.10;;
21569;SDS011;57598;50.888;4.746;2023-05-07T00:05:44;67.70;;;61.70;;
21569;SDS011;57598;50.888;4.746;2023-05-07T00:08:11;68.63;;;62.55;;
21569;SDS011;57598;50.888;4.746;2023-05-07T00:10:38;67.10;;;61.10;;
21569;SDS011;57598;50.888;4.746;2023-05-07T00:13:07;66.32;;;60.42;;
21569;SDS011;57598;50.888;4.746;2023-05-07T00:15:34;65.63;;;59.83;;
21569;SDS011;57598;50.888;4.746;2023-05-07T00:18:01;64.22;;;58.45;;
21569;SDS011;57598;50.888;4.746;2023-05-07T00:20:28;67.75;;;61.85;;
21569;SDS011;57598;50.888;4.746;2023-05-07T00:22:55;64.47;;;58.78;;
21569;SDS011;57598;50.888;4.746;2023-05-07T00:25:22;67.15;;;61.25;;
21569;SDS011;57598;50.888;4.746;2023-05-07T00:27:49;68.07;;;61.97;;
21569;SDS011;57598;50.888;4.746;2023-05-07T00:30:17;62.88;;;57.17;;
21569;SDS011;57598;50.888;4.746;2023-05-07T00:32:45;66.78;;;60.58;;
21569;SDS011;57598;50.888;4.746;2023-05-07T00:35:13;64.13;;;58.38;;
21569;SDS011;57598;50.888;4.746;2023-05-07T00:37:41;64.55;;;58.80;;
21569;SDS011;57598;50.888;4.746;2023-05-07T00:40:08;66.28;;;60.35;;
21569;SDS011;57598;50.888;4.746;2023-05-07T00:42:35;66.15;;;60.25;;
21569;SDS011;57598;50.888;4.746;2023-05-07T00:45:03;68.40;;;62.47;;
21569;SDS011;57598;50.888;4.746;2023-05-07T00:47:31;68.10;;;62.00;;
21569;SDS011;57598;50.888;4.746;2023-05-07T00:49:58;66.63;;;60.42;;
21569;SDS011;57598;50.888;4.746;2023-05-07T00:52:26;64.35;;;58.35;;
21569;SDS011;57598;50.888;4.746;2023-05-07T00:54:53;67.43;;;61.22;;
21569;SDS011;57598;50.888;4.746;2023-05-07T00:57:21;66.75;;;60.65;;
21569;SDS011;57598;50.888;4.746;2023-05-07T00:59:50;67.28;;;60.97;;
21569;SDS011;57598;50.888;4.746;2023-05-07T01:02:18;64.88;;;58.90;;
21569;SDS011;57598;50.888;4.746;2023-05-07T01:04:46;68.57;;;62.05;;
21569;SDS011;57598;50.888;4.746;2023-05-07T01:07:13;67.70;;;61.45;;
21569;SDS011;57598;50.888;4.746;2023-05-07T01:09:40;65.10;;;59.08;;
21569;SDS011;57598;50.888;4.746;2023-05-07T01:12:07;66.40;;;60.33;;
21569;SDS011;57598;50.888;4.746;2023-05-07T01:14:35;64.47;;;58.50;;
21569;SDS011;57598;50.888;4.746;2023-05-07T01:17:02;65.20;;;59.28;;
21569;SDS011;57598;50.888;4.746;2023-05-07T01:19:29;65.50;;;59.50;;
21569;SDS011;57598;50.888;4.746;2023-05-07T01:22:03;66.63;;;60.58;;
21569;SDS011;57598;50.888;4.746;2023-05-07T01:24:34;70.18;;;63.88;;
21569;SDS011;57598;50.888;4.746;2023-05-07T01:27:03;69.70;;;63.40;;
21569;SDS011;57598;50.888;4.746;2023-05-07T01:29:30;67.28;;;61.17;;
21569;SDS011;57598;50.888;4.746;2023-05-07T01:31:57;66.55;;;60.42;;
21569;SDS011;57598;50.888;4.746;2023-05-07T01:34:26;69.88;;;63.58;;
21569;SDS011;57598;50.888;4.746;2023-05-07T01:36:56;70.68;;;64.28;;
21569;SDS011;57598;50.888;4.746;2023-05-07T01:39:26;65.35;;;59.30;;
21569;SDS011;57598;50.888;4.746;2023-05-07T01:41:56;64.47;;;58.47;;
21569;SDS011;57598;50.888;4.746;2023-05-07T01:44:25;67.05;;;60.97;;
21569;SDS011;57598;50.888;4.746;2023-05-07T01:46:53;64.60;;;58.67;;
21569;SDS011;57598;50.888;4.746;2023-05-07T01:49:20;66.32;;;60.33;;
21569;SDS011;57598;50.888;4.746;2023-05-07T01:51:47;67.28;;;61.28;;
21569;SDS011;57598;50.888;4.746;2023-05-07T01:54:15;66.78;;;60.47;;
21569;SDS011;57598;50.888;4.746;2023-05-07T01:56:42;65.28;;;59.35;;
21569;SDS011;57598;50.888;4.746;2023-05-07T01:59:11;67.07;;;60.97;;
21569;SDS011;57598;50.888;4.746;2023-05-07T02:01:38;65.97;;;59.97;;
21569;SDS011;57598;50.888;4.746;2023-05-07T02:04:05;68.07;;;62.05;;
21569;SDS011;57598;50.888;4.746;2023-05-07T02:06:32;67.28;;;61.17;;
21569;SDS011;57598;50.888;4.746;2023-05-07T02:08:59;67.22;;;61.13;;
21569;SDS011;57598;50.888;4.746;2023-05-07T02:11:26;66.28;;;60.17;;
21569;SDS011;57598;50.888;4.746;2023-05-07T02:13:53;66.05;;;60.05;;
21569;SDS011;57598;50.888;4.746;2023-05-07T02:16:21;66.10;;;60.10;;
21569;SDS011;57598;50.888;4.746;2023-05-07T02:18:49;73.47;;;66.75;;
21569;SDS011;57598;50.888;4.746;2023-05-07T02:21:16;65.60;;;59.60;;
21569;SDS011;57598;50.888;4.746;2023-05-07T02:23:43;65.70;;;59.72;;
21569;SDS011;57598;50.888;4.746;2023-05-07T02:26:10;63.83;;;57.92;;
21569;SDS011;57598;50.888;4.746;2023-05-07T02:28:37;65.53;;;59.53;;
21569;SDS011;57598;50.888;4.746;2023-05-07T02:31:04;65.97;;;59.97;;
21569;SDS011;57598;50.888;4.746;2023-05-07T02:33:33;66.32;;;60.33;;
21569;SDS011;57598;50.888;4.746;2023-05-07T02:36:07;67.00;;;60.90;;
21569;SDS011;57598;50.888;4.746;2023-05-07T02:38:35;65.53;;;59.53;;
21569;SDS011;57598;50.888;4.746;2023-05-07T02:41:02;66.70;;;60.60;;
21569;SDS011;57598;50.888;4.746;2023-05-07T02:43:29;66.80;;;60.80;;
21569;SDS011;57598;50.888;4.746;2023-05-07T02:46:02;66.10;;;60.10;;
21569;SDS011;57598;50.888;4.746;2023-05-07T02:48:30;64.95;;;58.97;;
21569;SDS011;57598;50.888;4.746;2023-05-07T02:50:58;63.40;;;57.40;;
21569;SDS011;57598;50.888;4.746;2023-05-07T02:53:26;66.13;;;60.03;;
21569;SDS011;57598;50.888;4.746;2023-05-07T02:55:55;66.88;;;60.78;;
21569;SDS011;57598;50.888;4.746;2023-05-07T02:58:23;65.43;;;59.33;;
21569;SDS011;57598;50.888;4.746;2023-05-07T03:00:50;66.43;;;60.13;;
21569;SDS011;57598;50.888;4.746;2023-05-07T03:03:18;66.35;;;60.35;;
21569;SDS011;57598;50.888;4.746;2023-05-07T03:05:44;67.90;;;61.80;;
21569;SDS011;57598;50.888;4.746;2023-05-07T03:08:13;64.15;;;58.35;;
21569;SDS011;57598;50.888;4.746;2023-05-07T03:10:40;64.03;;;58.13;;
21569;SDS011;57598;50.888;4.746;2023-05-07T03:13:07;64.47;;;58.58;;
21569;SDS011;57598;50.888;4.746;2023-05-07T03:15:34;64.22;;;58.33;;
21569;SDS011;57598;50.888;4.746;2023-05-07T03:18:01;64.22;;;58.33;;
21569;SDS011;57598;50.888;4.746;2023-05-07T03:20:28;66.70;;;60.60;;
21569;SDS011;57598;50.888;4.746;2023-05-07T03:22:55;65.75;;;59.75;;
21569;SDS011;57598;50.888;4.746;2023-05-07T03:25:23;65.13;;;59.13;;
21569;SDS011;57598;50.888;4.746;2023-05-07T03:27:50;66.78;;;60.80;;
21569;SDS011;57598;50.888;4.746;2023-05-07T03:30:17;65.68;;;59.75;;
21569;SDS011;57598;50.888;4.746;2023-05-07T03:32:45;64.88;;;59.00;;
21569;SDS011;57598;50.888;4.746;2023-05-07T03:35:12;65.55;;;59.55;;
21569;SDS011;57598;50.888;4.746;2023-05-07T03:37:39;65.78;;;59.83;;
21569;SDS011;57598;50.888;4.746;2023-05-07T03:40:07;64.40;;;58.50;;
21569;SDS011;57598;50.888;4.746;2023-05-07T03:42:36;64.32;;;58.42;;
21569;SDS011;57598;50.888;4.746;2023-05-07T03:45:03;65.97;;;59.97;;
21569;SDS011;57598;50.888;4.746;2023-05-07T03:47:31;64.60;;;58.60;;
21569;SDS011;57598;50.888;4.746;2023-05-07T03:49:58;63.10;;;57.20;;
21569;SDS011;57598;50.888;4.746;2023-05-07T03:52:25;65.93;;;59.92;;
21569;SDS011;57598;50.888;4.746;2023-05-07T03:54:52;64.85;;;58.88;;
21569;SDS011;57598;50.888;4.746;2023-05-07T03:57:19;64.55;;;58.65;;
21569;SDS011;57598;50.888;4.746;2023-05-07T03:59:48;64.40;;;58.40;;
21569;SDS011;57598;50.888;4.746;2023-05-07T04:02:15;65.30;;;59.20;;
21569;SDS011;57598;50.888;4.746;2023-05-07T04:04:42;62.90;;;57.00;;
21569;SDS011;57598;50.888;4.746;2023-05-07T04:07:09;63.85;;;57.95;;
21569;SDS011;57598;50.888;4.746;2023-05-07T04:09:36;63.85;;;57.90;;
21569;SDS011;57598;50.888;4.746;2023-05-07T04:12:03;61.58;;;55.67;;
21569;SDS011;57598;50.888;4.746;2023-05-07T04:14:30;62.72;;;56.92;;
21569;SDS011;57598;50.888;4.746;2023-05-07T04:16:59;62.60;;;55.92;;
21569;SDS011;57598;50.888;4.746;2023-05-07T04:19:26;63.63;;;57.30;;
21569;SDS011;57598;50.888;4.746;2023-05-07T04:21:53;60.90;;;55.10;;
21569;SDS011;57598;50.888;4.746;2023-05-07T04:24:20;60.05;;;54.40;;
21569;SDS011;57598;50.888;4.746;2023-05-07T04:26:47;62.40;;;56.72;;
21569;SDS011;57598;50.888;4.746;2023-05-07T04:29:16;63.08;;;57.30;;
21569;SDS011;57598;50.888;4.746;2023-05-07T04:31:43;60.97;;;55.45;;
21569;SDS011;57598;50.888;4.746;2023-05-07T04:34:12;62.38;;;56.78;;
21569;SDS011;57598;50.888;4.746;2023-05-07T04:36:39;61.03;;;55.35;;
21569;SDS011;57598;50.888;4.746;2023-05-07T04:39:06;60.70;;;55.30;;
21569;SDS011;57598;50.888;4.746;2023-05-07T04:41:35;59.40;;;53.90;;
21569;SDS011;57598;50.888;4.746;2023-05-07T04:44:02;63.85;;;58.15;;
21569;SDS011;57598;50.888;4.746;2023-05-07T04:46:31;63.30;;;57.70;;
21569;SDS011;57598;50.888;4.746;2023-05-07T04:48:58;61.20;;;55.70;;
21569;SDS011;57598;50.888;4.746;2023-05-07T04:51:26;61.10;;;55.70;;
21569;SDS011;57598;50.888;4.746;2023-05-07T04:53:53;64.00;;;58.40;;
21569;SDS011;57598;50.888;4.746;2023-05-07T04:56:20;62.78;;;57.28;;
21569;SDS011;57598;50.888;4.746;2023-05-07T04:58:47;62.40;;;56.90;;
21569;SDS011;57598;50.888;4.746;2023-05-07T05:01:14;62.40;;;57.00;;
21569;SDS011;57598;50.888;4.746;2023-05-07T05:03:41;60.33;;;55.03;;
21569;SDS011;57598;50.888;4.746;2023-05-07T05:06:08;60.38;;;55.08;;
21569;SDS011;57598;50.888;4.746;2023-05-07T05:08:36;58.17;;;52.92;;
21569;SDS011;57598;50.888;4.746;2023-05-07T05:11:03;58.63;;;53.38;;
21569;SDS011;57598;50.888;4.746;2023-05-07T05:13:30;61.50;;;56.10;;
21569;SDS011;57598;50.888;4.746;2023-05-07T05:15:57;58.22;;;53.03;;
21569;SDS011;57598;50.888;4.746;2023-05-07T05:18:25;59.45;;;54.05;;
21569;SDS011;57598;50.888;4.746;2023-05-07T05:20:52;57.35;;;52.15;;
21569;SDS011;57598;50.888;4.746;2023-05-07T05:23:19;62.28;;;56.97;;
21569;SDS011;57598;50.888;4.746;2023-05-07T05:25:47;63.38;;;58.17;;
21569;SDS011;57598;50.888;4.746;2023-05-07T05:28:14;65.95;;;60.55;;
21569;SDS011;57598;50.888;4.746;2023-05-07T05:30:41;63.03;;;57.63;;
21569;SDS011;57598;50.888;4.746;2023-05-07T05:33:08;62.13;;;57.03;;
21569;SDS011;57598;50.888;4.746;2023-05-07T05:35:35;61.53;;;56.17;;
21569;SDS011;57598;50.888;4.746;2023-05-07T05:38:02;60.00;;;55.00;;
21569;SDS011;57598;50.888;4.746;2023-05-07T05:40:29;77.25;;;55.38;;
21569;SDS011;57598;50.888;4.746;2023-05-07T05:42:57;62.15;;;56.67;;
21569;SDS011;57598;50.888;4.746;2023-05-07T05:45:24;57.67;;;52.78;;
21569;SDS011;57598;50.888;4.746;2023-05-07T05:47:51;58.20;;;53.40;;
21569;SDS011;57598;50.888;4.746;2023-05-07T05:50:18;60.50;;;55.53;;
21569;SDS011;57598;50.888;4.746;2023-05-07T05:52:46;57.78;;;53.08;;
21569;SDS011;57598;50.888;4.746;2023-05-07T05:55:13;57.25;;;52.55;;
21569;SDS011;57598;50.888;4.746;2023-05-07T05:57:40;58.50;;;53.80;;
21569;SDS011;57598;50.888;4.746;2023-05-07T06:00:09;57.05;;;52.35;;
21569;SDS011;57598;50.888;4.746;2023-05-07T06:02:37;57.47;;;52.90;;
21569;SDS011;57598;50.888;4.746;2023-05-07T06:05:04;54.85;;;50.45;;
21569;SDS011;57598;50.888;4.746;2023-05-07T06:07:31;56.42;;;52.00;;
21569;SDS011;57598;50.888;4.746;2023-05-07T06:09:59;57.72;;;53.25;;
21569;SDS011;57598;50.888;4.746;2023-05-07T06:12:26;54.90;;;50.60;;
21569;SDS011;57598;50.888;4.746;2023-05-07T06:14:53;55.63;;;51.22;;
21569;SDS011;57598;50.888;4.746;2023-05-07T06:17:22;55.47;;;51.10;;
21569;SDS011;57598;50.888;4.746;2023-05-07T06:19:49;54.60;;;50.35;;
21569;SDS011;57598;50.888;4.746;2023-05-07T06:22:16;53.95;;;49.75;;
21569;SDS011;57598;50.888;4.746;2023-05-07T06:24:43;53.38;;;49.17;;
21569;SDS011;57598;50.888;4.746;2023-05-07T06:27:10;54.80;;;50.30;;
21569;SDS011;57598;50.888;4.746;2023-05-07T06:29:37;53.50;;;49.40;;
21569;SDS011;57598;50.888;4.746;2023-05-07T06:32:07;51.78;;;47.78;;
21569;SDS011;57598;50.888;4.746;2023-05-07T06:34:36;51.75;;;47.80;;
21569;SDS011;57598;50.888;4.746;2023-05-07T06:37:03;51.10;;;47.20;;
21569;SDS011;57598;50.888;4.746;2023-05-07T06:39:30;52.95;;;48.85;;
21569;SDS011;57598;50.888;4.746;2023-05-07T06:41:57;52.97;;;48.88;;
21569;SDS011;57598;50.888;4.746;2023-05-07T06:44:24;52.55;;;48.55;;
21569;SDS011;57598;50.888;4.746;2023-05-07T06:46:51;53.35;;;49.20;;
21569;SDS011;57598;50.888;4.746;2023-05-07T06:49:18;53.13;;;49.13;;
21569;SDS011;57598;50.888;4.746;2023-05-07T06:51:47;54.33;;;50.13;;
21569;SDS011;57598;50.888;4.746;2023-05-07T06:54:14;53.60;;;49.53;;
21569;SDS011;57598;50.888;4.746;2023-05-07T06:56:41;52.55;;;48.42;;
21569;SDS011;57598;50.888;4.746;2023-05-07T06:59:08;53.97;;;49.75;;
21569;SDS011;57598;50.888;4.746;2023-05-07T07:01:35;51.35;;;47.30;;
21569;SDS011;57598;50.888;4.746;2023-05-07T07:04:02;50.75;;;46.95;;
21569;SDS011;57598;50.888;4.746;2023-05-07T07:06:29;50.42;;;46.53;;
21569;SDS011;57598;50.888;4.746;2023-05-07T07:08:58;51.47;;;47.67;;
21569;SDS011;57598;50.888;4.746;2023-05-07T07:11:26;51.38;;;47.28;;
21569;SDS011;57598;50.888;4.746;2023-05-07T07:13:53;50.88;;;46.45;;
21569;SDS011;57598;50.888;4.746;2023-05-07T07:16:20;48.85;;;45.25;;
21569;SDS011;57598;50.888;4.746;2023-05-07T07:18:47;49.17;;;45.58;;
21569;SDS011;57598;50.888;4.746;2023-05-07T07:21:14;47.70;;;44.20;;
21569;SDS011;57598;50.888;4.746;2023-05-07T07:23:41;48.75;;;45.25;;
21569;SDS011;57598;50.888;4.746;2023-05-07T07:26:09;47.17;;;43.78;;
21569;SDS011;57598;50.888;4.746;2023-05-07T07:28:41;47.65;;;44.35;;
21569;SDS011;57598;50.888;4.746;2023-05-07T07:31:09;47.97;;;44.58;;
21569;SDS011;57598;50.888;4.746;2023-05-07T07:33:37;49.20;;;45.70;;
21569;SDS011;57598;50.888;4.746;2023-05-07T07:36:04;49.85;;;46.15;;
21569;SDS011;57598;50.888;4.746;2023-05-07T07:38:32;52.42;;;48.20;;
21569;SDS011;57598;50.888;4.746;2023-05-07T07:40:59;50.60;;;46.80;;
21569;SDS011;57598;50.888;4.746;2023-05-07T07:43:27;50.55;;;46.85;;
21569;SDS011;57598;50.888;4.746;2023-05-07T07:45:54;53.35;;;49.15;;
21569;SDS011;57598;50.888;4.746;2023-05-07T07:48:21;52.13;;;47.58;;
21569;SDS011;57598;50.888;4.746;2023-05-07T07:50:49;53.88;;;49.08;;
21569;SDS011;57598;50.888;4.746;2023-05-07T07:53:16;54.08;;;50.00;;
21569;SDS011;57598;50.888;4.746;2023-05-07T07:55:43;52.88;;;48.90;;
21569;SDS011;57598;50.888;4.746;2023-05-07T07:58:10;53.45;;;49.55;;
21569;SDS011;57598;50.888;4.746;2023-05-07T08:00:39;53.42;;;49.28;;
21569;SDS011;57598;50.888;4.746;2023-05-07T08:03:06;53.63;;;49.63;;
21569;SDS011;57598;50.888;4.746;2023-05-07T08:05:35;51.75;;;47.88;;
21569;SDS011;57598;50.888;4.746;2023-05-07T08:08:03;59.03;;;53.65;;
21569;SDS011;57598;50.888;4.746;2023-05-07T08:10:31;54.33;;;50.22;;
21569;SDS011;57598;50.888;4.746;2023-05-07T08:12:59;57.28;;;52.63;;
21569;SDS011;57598;50.888;4.746;2023-05-07T08:15:26;54.92;;;50.50;;
21569;SDS011;57598;50.888;4.746;2023-05-07T08:17:55;53.15;;;49.13;;
21569;SDS011;57598;50.888;4.746;2023-05-07T08:20:23;52.55;;;48.55;;
21569;SDS011;57598;50.888;4.746;2023-05-07T08:22:51;53.22;;;49.15;;
21569;SDS011;57598;50.888;4.746;2023-05-07T08:25:18;52.83;;;48.72;;
21569;SDS011;57598;50.888;4.746;2023-05-07T08:27:45;54.08;;;49.78;;
21569;SDS011;57598;50.888;4.746;2023-05-07T08:30:12;56.03;;;51.47;;
21569;SDS011;57598;50.888;4.746;2023-05-07T08:32:40;54.50;;;50.38;;
21569;SDS011;57598;50.888;4.746;2023-05-07T08:35:09;56.10;;;51.30;;
21569;SDS011;57598;50.888;4.746;2023-05-07T08:37:36;54.35;;;50.15;;
21569;SDS011;57598;50.888;4.746;2023-05-07T08:40:03;52.95;;;48.75;;
21569;SDS011;57598;50.888;4.746;2023-05-07T08:42:31;54.90;;;50.13;;
21569;SDS011;57598;50.888;4.746;2023-05-07T08:45:02;57.22;;;52.80;;
21569;SDS011;57598;50.888;4.746;2023-05-07T08:47:34;57.17;;;52.78;;
21569;SDS011;57598;50.888;4.746;2023-05-07T08:50:06;54.58;;;50.17;;
21569;SDS011;57598;50.888;4.746;2023-05-07T08:52:35;56.88;;;52.05;;
21569;SDS011;57598;50.888;4.746;2023-05-07T08:55:03;57.67;;;53.03;;
21569;SDS011;57598;50.888;4.746;2023-05-07T08:57:30;57.20;;;52.40;;
21569;SDS011;57598;50.888;4.746;2023-05-07T08:59:57;55.63;;;51.15;;
21569;SDS011;57598;50.888;4.746;2023-05-07T09:02:24;57.10;;;52.55;;
21569;SDS011;57598;50.888;4.746;2023-05-07T09:04:52;56.22;;;51.72;;
21569;SDS011;57598;50.888;4.746;2023-05-07T09:07:20;56.75;;;51.97;;
21569;SDS011;57598;50.888;4.746;2023-05-07T09:09:48;55.65;;;51.05;;
21569;SDS011;57598;50.888;4.746;2023-05-07T09:12:15;55.05;;;50.75;;
21569;SDS011;57598;50.888;4.746;2023-05-07T09:14:43;56.25;;;51.83;;
21569;SDS011;57598;50.888;4.746;2023-05-07T09:17:12;57.40;;;53.08;;
21569;SDS011;57598;50.888;4.746;2023-05-07T09:19:39;59.15;;;54.65;;
21569;SDS011;57598;50.888;4.746;2023-05-07T09:22:05;57.88;;;53.42;;
21569;SDS011;57598;50.888;4.746;2023-05-07T09:24:34;58.35;;;53.58;;
21569;SDS011;57598;50.888;4.746;2023-05-07T09:27:03;61.45;;;56.60;;
21569;SDS011;57598;50.888;4.746;2023-05-07T09:29:30;64.43;;;59.30;;
21569;SDS011;57598;50.888;4.746;2023-05-07T09:32:00;64.05;;;58.85;;
21569;SDS011;57598;50.888;4.746;2023-05-07T09:34:28;65.60;;;60.33;;
21569;SDS011;57598;50.888;4.746;2023-05-07T09:36:56;64.53;;;59.40;;
21569;SDS011;57598;50.888;4.746;2023-05-07T09:39:24;62.85;;;57.75;;
21569;SDS011;57598;50.888;4.746;2023-05-07T09:41:53;62.92;;;57.78;;
21569;SDS011;57598;50.888;4.746;2023-05-07T09:44:20;61.17;;;56.17;;
21569;SDS011;57598;50.888;4.746;2023-05-07T09:46:51;60.78;;;55.70;;
21569;SDS011;57598;50.888;4.746;2023-05-07T09:49:21;59.10;;;54.20;;
21569;SDS011;57598;50.888;4.746;2023-05-07T09:51:50;58.35;;;53.45;;
21569;SDS011;57598;50.888;4.746;2023-05-07T09:54:18;59.72;;;54.78;;
21569;SDS011;57598;50.888;4.746;2023-05-07T09:56:45;58.38;;;53.63;;
21569;SDS011;57598;50.888;4.746;2023-05-07T09:59:16;58.00;;;53.20;;
21569;SDS011;57598;50.888;4.746;2023-05-07T10:01:43;57.60;;;52.85;;
21569;SDS011;57598;50.888;4.746;2023-05-07T10:04:11;61.67;;;56.67;;
21569;SDS011;57598;50.888;4.746;2023-05-07T10:06:38;60.65;;;55.65;;
21569;SDS011;57598;50.888;4.746;2023-05-07T10:09:06;59.95;;;54.85;;
21569;SDS011;57598;50.888;4.746;2023-05-07T10:11:35;62.45;;;57.35;;
21569;SDS011;57598;50.888;4.746;2023-05-07T10:14:02;60.60;;;55.55;;
21569;SDS011;57598;50.888;4.746;2023-05-07T10:16:32;62.05;;;56.85;;
21569;SDS011;57598;50.888;4.746;2023-05-07T10:19:02;67.63;;;58.33;;
21569;SDS011;57598;50.888;4.746;2023-05-07T10:21:29;62.80;;;57.58;;
21569;SDS011;57598;50.888;4.746;2023-05-07T10:23:58;62.63;;;57.42;;
21569;SDS011;57598;50.888;4.746;2023-05-07T10:26:31;63.05;;;57.65;;
21569;SDS011;57598;50.888;4.746;2023-05-07T10:29:02;60.45;;;55.38;;
21569;SDS011;57598;50.888;4.746;2023-05-07T10:31:44;63.45;;;58.15;;
21569;SDS011;57598;50.888;4.746;2023-05-07T10:34:20;63.50;;;58.30;;
21569;SDS011;57598;50.888;4.746;2023-05-07T10:36:50;76.68;;;70.68;;
21569;SDS011;57598;50.888;4.746;2023-05-07T10:39:19;65.57;;;60.38;;
21569;SDS011;57598;50.888;4.746;2023-05-07T10:41:47;62.95;;;57.60;;
21569;SDS011;57598;50.888;4.746;2023-05-07T10:44:24;57.90;;;53.00;;
21569;SDS011;57598;50.888;4.746;2023-05-07T10:52:40;57.10;;;52.08;;
21569;SDS011;57598;50.888;4.746;2023-05-07T10:55:19;60.30;;;55.17;;
21569;SDS011;57598;50.888;4.746;2023-05-07T10:57:50;63.08;;;57.58;;
21569;SDS011;57598;50.888;4.746;2023-05-07T11:03:11;54.92;;;50.33;;
21569;SDS011;57598;50.888;4.746;2023-05-07T11:05:39;56.40;;;51.70;;
21569;SDS011;57598;50.888;4.746;2023-05-07T11:08:07;57.33;;;52.63;;
21569;SDS011;57598;50.888;4.746;2023-05-07T11:16:16;57.20;;;52.30;;
21569;SDS011;57598;50.888;4.746;2023-05-07T11:18:48;59.97;;;55.08;;
21569;SDS011;57598;50.888;4.746;2023-05-07T11:21:32;61.13;;;56.13;;
21569;SDS011;57598;50.888;4.746;2023-05-07T11:24:01;57.53;;;52.83;;
21569;SDS011;57598;50.888;4.746;2023-05-07T11:26:29;57.92;;;53.03;;
21569;SDS011;57598;50.888;4.746;2023-05-07T11:28:57;55.95;;;51.35;;
21569;SDS011;57598;50.888;4.746;2023-05-07T11:31:26;58.78;;;54.00;;
21569;SDS011;57598;50.888;4.746;2023-05-07T11:33:56;60.13;;;55.22;;
21569;SDS011;57598;50.888;4.746;2023-05-07T11:36:24;59.70;;;54.83;;
21569;SDS011;57598;50.888;4.746;2023-05-07T11:38:52;59.10;;;54.05;;
21569;SDS011;57598;50.888;4.746;2023-05-07T11:41:19;56.55;;;51.75;;
21569;SDS011;57598;50.888;4.746;2023-05-07T11:43:53;58.80;;;53.90;;
21569;SDS011;57598;50.888;4.746;2023-05-07T11:46:22;58.13;;;53.22;;
21569;SDS011;57598;50.888;4.746;2023-05-07T11:48:49;55.63;;;51.03;;
21569;SDS011;57598;50.888;4.746;2023-05-07T11:51:20;56.42;;;51.92;;
21569;SDS011;57598;50.888;4.746;2023-05-07T11:53:48;55.30;;;50.90;;
21569;SDS011;57598;50.888;4.746;2023-05-07T11:56:17;53.03;;;48.92;;
21569;SDS011;57598;50.888;4.746;2023-05-07T11:58:45;53.30;;;49.20;;
21569;SDS011;57598;50.888;4.746;2023-05-07T12:01:13;56.03;;;51.17;;
21569;SDS011;57598;50.888;4.746;2023-05-07T12:03:42;53.95;;;49.75;;
21569;SDS011;57598;50.888;4.746;2023-05-07T12:06:11;56.30;;;52.00;;
21569;SDS011;57598;50.888;4.746;2023-05-07T12:08:40;56.38;;;51.97;;
21569;SDS011;57598;50.888;4.746;2023-05-07T12:11:08;55.35;;;51.10;;
21569;SDS011;57598;50.888;4.746;2023-05-07T12:13:38;54.15;;;49.97;;
21569;SDS011;57598;50.888;4.746;2023-05-07T12:16:05;53.60;;;49.50;;
21569;SDS011;57598;50.888;4.746;2023-05-07T12:18:34;52.03;;;48.03;;
21569;SDS011;57598;50.888;4.746;2023-05-07T12:21:02;51.17;;;47.28;;
21569;SDS011;57598;50.888;4.746;2023-05-07T12:23:31;51.63;;;47.83;;
21569;SDS011;57598;50.888;4.746;2023-05-07T12:26:00;51.42;;;47.63;;
21569;SDS011;57598;50.888;4.746;2023-05-07T12:28:27;51.63;;;47.92;;
21569;SDS011;57598;50.888;4.746;2023-05-07T12:30:55;49.40;;;45.80;;
21569;SDS011;57598;50.888;4.746;2023-05-07T12:33:24;50.10;;;46.50;;
21569;SDS011;57598;50.888;4.746;2023-05-07T12:35:54;49.70;;;46.10;;
21569;SDS011;57598;50.888;4.746;2023-05-07T12:38:22;49.13;;;45.53;;
21569;SDS011;57598;50.888;4.746;2023-05-07T12:40:50;50.20;;;46.50;;
21569;SDS011;57598;50.888;4.746;2023-05-07T12:43:23;50.63;;;46.92;;
21569;SDS011;57598;50.888;4.746;2023-05-07T12:45:53;48.80;;;45.20;;
21569;SDS011;57598;50.888;4.746;2023-05-07T12:48:22;52.15;;;48.35;;
21569;SDS011;57598;50.888;4.746;2023-05-07T12:50:52;50.80;;;47.10;;
21569;SDS011;57598;50.888;4.746;2023-05-07T12:53:20;49.97;;;46.38;;
21569;SDS011;57598;50.888;4.746;2023-05-07T12:55:49;50.17;;;46.58;;
21569;SDS011;57598;50.888;4.746;2023-05-07T12:58:16;49.80;;;46.20;;
21569;SDS011;57598;50.888;4.746;2023-05-07T13:00:47;53.17;;;49.28;;
21569;SDS011;57598;50.888;4.746;2023-05-07T13:03:24;51.40;;;47.77;;
21569;SDS011;57598;50.888;4.746;2023-05-07T13:05:55;51.40;;;47.60;;
21569;SDS011;57598;50.888;4.746;2023-05-07T13:08:27;49.80;;;46.30;;
21569;SDS011;57598;50.888;4.746;2023-05-07T13:10:56;50.22;;;46.63;;
21569;SDS011;57598;50.888;4.746;2023-05-07T13:13:24;51.33;;;47.63;;
21569;SDS011;57598;50.888;4.746;2023-05-07T13:15:53;49.95;;;46.33;;
21569;SDS011;57598;50.888;4.746;2023-05-07T13:18:20;51.00;;;47.50;;
21569;SDS011;57598;50.888;4.746;2023-05-07T13:20:47;49.05;;;45.47;;
21569;SDS011;57598;50.888;4.746;2023-05-07T13:23:14;47.85;;;44.55;;
21569;SDS011;57598;50.888;4.746;2023-05-07T13:25:41;50.63;;;47.13;;
21569;SDS011;57598;50.888;4.746;2023-05-07T13:28:08;49.47;;;45.97;;
21569;SDS011;57598;50.888;4.746;2023-05-07T13:30:35;52.15;;;48.55;;
21569;SDS011;57598;50.888;4.746;2023-05-07T13:33:03;50.00;;;46.60;;
21569;SDS011;57598;50.888;4.746;2023-05-07T13:35:30;50.25;;;46.85;;
21569;SDS011;57598;50.888;4.746;2023-05-07T13:37:57;49.15;;;45.67;;
21569;SDS011;57598;50.888;4.746;2023-05-07T13:40:24;46.78;;;43.22;;
21569;SDS011;57598;50.888;4.746;2023-05-07T13:42:51;48.78;;;45.45;;
21569;SDS011;57598;50.888;4.746;2023-05-07T13:45:19;46.22;;;43.03;;
21569;SDS011;57598;50.888;4.746;2023-05-07T13:47:46;46.17;;;43.08;;
21569;SDS011;57598;50.888;4.746;2023-05-07T13:50:15;48.50;;;45.20;;
21569;SDS011;57598;50.888;4.746;2023-05-07T13:52:43;46.88;;;43.67;;
21569;SDS011;57598;50.888;4.746;2023-05-07T13:55:15;48.15;;;44.85;;
21569;SDS011;57598;50.888;4.746;2023-05-07T13:57:42;50.58;;;46.97;;
21569;SDS011;57598;50.888;4.746;2023-05-07T14:00:10;52.85;;;49.05;;
21569;SDS011;57598;50.888;4.746;2023-05-07T14:02:38;56.10;;;52.10;;
21569;SDS011;57598;50.888;4.746;2023-05-07T14:05:05;53.40;;;49.35;;
21569;SDS011;57598;50.888;4.746;2023-05-07T14:07:35;53.72;;;49.72;;
21569;SDS011;57598;50.888;4.746;2023-05-07T14:10:02;54.55;;;50.45;;
21569;SDS011;57598;50.888;4.746;2023-05-07T14:12:31;61.33;;;56.50;;
21569;SDS011;57598;50.888;4.746;2023-05-07T14:14:58;55.55;;;51.25;;
21569;SDS011;57598;50.888;4.746;2023-05-07T14:17:25;55.38;;;51.13;;
21569;SDS011;57598;50.888;4.746;2023-05-07T14:19:53;54.10;;;50.00;;
21569;SDS011;57598;50.888;4.746;2023-05-07T14:22:20;55.90;;;51.63;;
21569;SDS011;57598;50.888;4.746;2023-05-07T14:24:49;56.60;;;52.40;;
21569;SDS011;57598;50.888;4.746;2023-05-07T14:27:17;55.38;;;51.28;;
21569;SDS011;57598;50.888;4.746;2023-05-07T14:29:44;56.03;;;51.92;;
21569;SDS011;57598;50.888;4.746;2023-05-07T14:32:15;57.50;;;53.20;;
21569;SDS011;57598;50.888;4.746;2023-05-07T14:34:43;54.25;;;50.25;;
21569;SDS011;57598;50.888;4.746;2023-05-07T14:37:10;54.90;;;50.90;;
21569;SDS011;57598;50.888;4.746;2023-05-07T14:39:37;54.15;;;50.15;;